createdAt,value
2023-01-13T00:00:13.212Z,676.58
2023-01-13T00:01:13.187Z,676.59
2023-01-13T00:02:13.234Z,676.59
2023-01-13T00:03:13.147Z,676.58
2023-01-13T00:04:13.165Z,676.57
2023-01-13T00:05:13.117Z,676.59
2023-01-13T00:06:13.126Z,676.59
2023-01-13T00:07:13.097Z,676.60
2023-01-13T00:08:13.085Z,676.59
2023-01-13T00:09:13.077Z,676.58
2023-01-13T00:10:13.405Z,676.59
2023-01-13T00:11:13.073Z,676.59
2023-01-13T00:12:13.088Z,676.58
2023-01-13T00:13:13.040Z,676.58
2023-01-13T00:14:13.018Z,676.58
2023-01-13T00:15:13.010Z,676.59
2023-01-13T00:16:13.070Z,676.58
2023-01-13T00:17:13.028Z,676.59
2023-01-13T00:18:12.969Z,676.58
2023-01-13T00:19:12.960Z,676.59
2023-01-13T00:20:12.948Z,676.59
2023-01-13T00:21:12.958Z,676.58
2023-01-13T00:22:12.953Z,676.59
2023-01-13T00:23:12.923Z,676.60
2023-01-13T00:24:12.964Z,676.59
2023-01-13T00:25:12.898Z,676.59
2023-01-13T00:26:12.922Z,676.59
2023-01-13T00:27:12.893Z,676.59
2023-01-13T00:28:13.329Z,676.58
2023-01-13T00:29:12.841Z,676.59
2023-01-13T00:30:12.861Z,676.58
2023-01-13T00:31:12.872Z,676.59
2023-01-13T00:32:12.832Z,676.59
2023-01-13T00:33:12.822Z,676.60
2023-01-13T00:34:12.814Z,676.60
2023-01-13T00:35:12.785Z,676.61
2023-01-13T00:36:12.762Z,676.60
2023-01-13T00:37:12.784Z,676.59
2023-01-13T00:38:12.762Z,676.59
2023-01-13T00:39:12.753Z,676.59
2023-01-13T00:40:12.729Z,676.59
2023-01-13T00:41:12.709Z,676.60
2023-01-13T00:42:12.766Z,676.59
2023-01-13T00:43:12.695Z,676.59
2023-01-13T00:44:12.908Z,676.59
2023-01-13T00:45:12.670Z,676.60
2023-01-13T00:46:12.692Z,676.60
2023-01-13T00:47:12.664Z,676.60
2023-01-13T00:48:12.641Z,676.60
2023-01-13T00:49:12.642Z,676.59
2023-01-13T00:50:12.628Z,676.60
2023-01-13T00:51:12.641Z,676.59
2023-01-13T00:52:12.605Z,676.59
2023-01-13T00:53:12.577Z,676.61
2023-01-13T00:54:12.584Z,676.60
2023-01-13T00:55:12.577Z,676.60
2023-01-13T00:56:12.558Z,676.60
2023-01-13T00:57:12.542Z,676.59
2023-01-13T00:58:12.545Z,676.60
2023-01-13T00:59:12.523Z,676.60
2023-01-13T01:00:12.501Z,676.60
2023-01-13T01:01:12.537Z,676.61
2023-01-13T01:02:12.626Z,676.60
2023-01-13T01:03:12.494Z,676.61
2023-01-13T01:04:12.469Z,676.60
2023-01-13T01:05:12.452Z,676.61
2023-01-13T01:06:12.449Z,676.60
2023-01-13T01:07:12.462Z,676.61
2023-01-13T01:08:12.421Z,676.60
2023-01-13T01:09:12.404Z,676.61
2023-01-13T01:10:12.401Z,676.60
2023-01-13T01:11:12.421Z,676.61
2023-01-13T01:12:12.418Z,676.60
2023-01-13T01:13:12.358Z,676.60
2023-01-13T01:14:12.370Z,676.60
2023-01-13T01:15:12.360Z,676.60
2023-01-13T01:16:12.337Z,676.60
2023-01-13T01:17:12.353Z,676.61
2023-01-13T01:18:12.314Z,676.61
2023-01-13T01:19:12.326Z,676.61
2023-01-13T01:20:12.284Z,676.60
2023-01-13T01:21:12.308Z,676.61
2023-01-13T01:22:12.250Z,676.61
2023-01-13T01:23:12.278Z,676.60
2023-01-13T01:24:12.242Z,676.61
2023-01-13T01:25:12.217Z,676.61
2023-01-13T01:26:12.226Z,676.60
2023-01-13T01:27:12.195Z,676.60
2023-01-13T01:28:12.207Z,676.60
2023-01-13T01:29:12.175Z,676.60
2023-01-13T01:30:12.177Z,676.60
2023-01-13T01:31:12.203Z,676.60
2023-01-13T01:32:12.152Z,676.60
2023-01-13T01:33:12.141Z,676.61
2023-01-13T01:34:12.144Z,676.59
2023-01-13T01:35:12.104Z,676.59
2023-01-13T01:36:12.105Z,676.60
2023-01-13T01:37:12.091Z,676.59
2023-01-13T01:38:12.084Z,676.60
2023-01-13T01:39:12.889Z,676.59
2023-01-13T01:40:12.084Z,676.60
2023-01-13T01:41:12.041Z,676.60
2023-01-13T01:42:12.043Z,676.59
2023-01-13T01:43:12.023Z,676.59
2023-01-13T01:44:12.016Z,676.60
2023-01-13T01:45:12.015Z,676.60
2023-01-13T01:46:11.983Z,676.60
2023-01-13T01:47:11.991Z,676.59
2023-01-13T01:48:11.968Z,676.61
2023-01-13T01:49:11.964Z,676.59
2023-01-13T01:50:11.968Z,676.59
2023-01-13T01:51:11.958Z,676.59
2023-01-13T01:52:11.925Z,676.59
2023-01-13T01:53:11.911Z,676.59
2023-01-13T01:54:11.906Z,676.60
2023-01-13T01:55:11.892Z,676.59
2023-01-13T01:56:11.891Z,676.59
2023-01-13T01:57:11.867Z,676.59
2023-01-13T01:58:11.895Z,676.59
2023-01-13T01:59:11.844Z,676.60
2023-01-13T02:00:11.858Z,676.59
2023-01-13T02:01:11.994Z,676.61
2023-01-13T02:02:11.921Z,676.59
2023-01-13T02:03:11.795Z,676.60
2023-01-13T02:04:11.812Z,676.60
2023-01-13T02:05:11.780Z,676.60
2023-01-13T02:06:11.783Z,676.60
2023-01-13T02:07:11.763Z,676.60
2023-01-13T02:08:11.744Z,676.60
2023-01-13T02:09:11.724Z,676.60
2023-01-13T02:10:11.806Z,676.60
2023-01-13T02:11:11.705Z,676.60
2023-01-13T02:12:11.694Z,676.60
2023-01-13T02:13:11.731Z,676.60
2023-01-13T02:14:11.676Z,676.60
2023-01-13T02:15:11.738Z,676.60
2023-01-13T02:16:11.737Z,676.60
2023-01-13T02:17:11.825Z,676.60
2023-01-13T02:18:11.639Z,676.60
2023-01-13T02:19:11.693Z,676.61
2023-01-13T02:20:11.644Z,676.60
2023-01-13T02:21:11.653Z,676.60
2023-01-13T02:22:11.614Z,676.60
2023-01-13T02:23:11.589Z,676.60
2023-01-13T02:24:11.864Z,676.60
2023-01-13T02:25:11.582Z,676.61
2023-01-13T02:26:11.595Z,676.60
2023-01-13T02:27:11.575Z,676.61
2023-01-13T02:28:11.709Z,676.61
2023-01-13T02:29:11.588Z,676.61
2023-01-13T02:30:11.596Z,676.61
2023-01-13T02:31:11.483Z,676.61
2023-01-13T02:32:11.473Z,676.59
2023-01-13T02:33:11.477Z,676.61
2023-01-13T02:34:11.473Z,676.61
2023-01-13T02:35:11.507Z,676.61
2023-01-13T02:36:11.446Z,676.60
2023-01-13T02:37:11.430Z,676.61
2023-01-13T02:38:11.409Z,676.61
2023-01-13T02:39:11.412Z,676.61
2023-01-13T02:40:11.411Z,676.60
2023-01-13T02:41:11.368Z,676.61
2023-01-13T02:42:11.364Z,676.61
2023-01-13T02:43:11.350Z,676.60
2023-01-13T02:44:11.340Z,676.62
2023-01-13T02:45:11.337Z,676.62
2023-01-13T02:46:11.370Z,676.61
2023-01-13T02:47:11.311Z,676.60
2023-01-13T02:48:11.284Z,676.61
2023-01-13T02:49:11.298Z,676.61
2023-01-13T02:50:11.283Z,676.61
2023-01-13T02:51:11.263Z,676.61
2023-01-13T02:52:11.252Z,676.61
2023-01-13T02:53:11.239Z,676.61
2023-01-13T02:54:11.216Z,676.61
2023-01-13T02:55:11.215Z,676.61
2023-01-13T02:56:11.224Z,676.61
2023-01-13T02:57:11.195Z,676.61
2023-01-13T02:58:11.176Z,676.62
2023-01-13T02:59:11.365Z,676.63
2023-01-13T03:00:11.186Z,676.61
2023-01-13T03:01:11.314Z,676.61
2023-01-13T03:02:11.429Z,676.62
2023-01-13T03:03:11.141Z,676.61
2023-01-13T03:04:11.140Z,676.61
2023-01-13T03:05:11.136Z,676.61
2023-01-13T03:06:11.111Z,676.61
2023-01-13T03:07:11.127Z,676.62
2023-01-13T03:08:11.092Z,676.61
2023-01-13T03:09:11.080Z,676.62
2023-01-13T03:10:11.082Z,676.61
2023-01-13T03:11:11.040Z,676.61
2023-01-13T03:12:11.061Z,676.61
2023-01-13T03:13:11.041Z,676.61
2023-01-13T03:14:11.034Z,676.61
2023-01-13T03:15:11.046Z,676.60
2023-01-13T03:16:11.083Z,676.61
2023-01-13T03:17:11.010Z,676.61
2023-01-13T03:18:10.982Z,676.62
2023-01-13T03:19:10.983Z,676.61
2023-01-13T03:20:10.952Z,676.63
2023-01-13T03:21:10.962Z,676.61
2023-01-13T03:22:10.919Z,676.62
2023-01-13T03:23:10.954Z,676.61
2023-01-13T03:24:10.911Z,676.62
2023-01-13T03:25:10.914Z,676.63
2023-01-13T03:26:10.887Z,676.63
2023-01-13T03:27:10.882Z,676.61
2023-01-13T03:28:10.868Z,676.61
2023-01-13T03:29:10.873Z,676.61
2023-01-13T03:30:10.839Z,676.61
2023-01-13T03:31:10.833Z,676.62
2023-01-13T03:32:10.851Z,676.61
2023-01-13T03:33:10.816Z,676.61
2023-01-13T03:34:10.892Z,676.61
2023-01-13T03:35:10.949Z,676.61
2023-01-13T03:36:10.845Z,676.62
2023-01-13T03:37:10.771Z,676.61
2023-01-13T03:38:10.753Z,676.61
2023-01-13T03:39:10.879Z,676.61
2023-01-13T03:40:10.746Z,676.61
2023-01-13T03:41:10.724Z,676.61
2023-01-13T03:42:10.696Z,676.62
2023-01-13T03:43:10.693Z,676.62
2023-01-13T03:44:10.710Z,676.61
2023-01-13T03:45:10.695Z,676.61
2023-01-13T03:46:10.702Z,676.61
2023-01-13T03:47:10.646Z,676.62
2023-01-13T03:48:10.652Z,676.62
2023-01-13T03:49:10.625Z,676.61
2023-01-13T03:50:10.630Z,676.60
2023-01-13T03:51:10.620Z,676.62
2023-01-13T03:52:10.606Z,676.63
2023-01-13T03:53:10.595Z,676.63
2023-01-13T03:54:10.592Z,676.62
2023-01-13T03:55:10.551Z,676.62
2023-01-13T03:56:10.564Z,676.62
2023-01-13T03:57:10.540Z,676.62
2023-01-13T03:58:10.672Z,676.61
2023-01-13T03:59:10.520Z,676.62
2023-01-13T04:00:10.513Z,676.62
2023-01-13T04:01:10.581Z,676.62
2023-01-13T04:02:10.764Z,676.61
2023-01-13T04:03:10.473Z,676.63
2023-01-13T04:04:10.562Z,676.62
2023-01-13T04:05:10.444Z,676.63
2023-01-13T04:06:10.446Z,676.62
2023-01-13T04:07:10.439Z,676.62
2023-01-13T04:08:10.652Z,676.62
2023-01-13T04:09:10.416Z,676.63
2023-01-13T04:10:10.400Z,676.63
2023-01-13T04:11:10.413Z,676.62
2023-01-13T04:12:10.384Z,676.63
2023-01-13T04:13:10.354Z,676.62
2023-01-13T04:14:10.376Z,676.63
2023-01-13T04:15:10.344Z,676.62
2023-01-13T04:16:10.372Z,676.62
2023-01-13T04:17:10.339Z,676.62
2023-01-13T04:18:10.304Z,676.62
2023-01-13T04:19:10.293Z,676.62
2023-01-13T04:20:10.327Z,676.63
2023-01-13T04:21:10.270Z,676.62
2023-01-13T04:22:10.264Z,676.62
2023-01-13T04:23:10.233Z,676.64
2023-01-13T04:24:10.245Z,676.62
2023-01-13T04:25:10.226Z,676.62
2023-01-13T04:26:10.234Z,676.63
2023-01-13T04:27:10.200Z,676.63
2023-01-13T04:28:10.217Z,676.63
2023-01-13T04:29:10.172Z,676.63
2023-01-13T04:30:10.190Z,676.63
2023-01-13T04:31:10.260Z,676.63
2023-01-13T04:32:10.167Z,676.63
2023-01-13T04:33:10.168Z,676.64
2023-01-13T04:34:10.138Z,676.64
2023-01-13T04:35:10.117Z,676.64
2023-01-13T04:36:10.125Z,676.64
2023-01-13T04:37:10.101Z,676.63
2023-01-13T04:38:10.088Z,676.63
2023-01-13T04:39:10.067Z,676.63
2023-01-13T04:40:10.064Z,676.63
2023-01-13T04:41:10.086Z,676.63
2023-01-13T04:42:10.059Z,676.63
2023-01-13T04:43:10.035Z,676.62
2023-01-13T04:44:10.019Z,676.63
2023-01-13T04:45:10.014Z,676.63
2023-01-13T04:46:10.066Z,676.63
2023-01-13T04:47:09.975Z,676.64
2023-01-13T04:48:10.204Z,676.63
2023-01-13T04:49:09.954Z,676.63
2023-01-13T04:50:09.963Z,676.64
2023-01-13T04:51:09.951Z,676.63
2023-01-13T04:52:09.934Z,676.64
2023-01-13T04:53:10.174Z,676.64
2023-01-13T04:54:09.907Z,676.63
2023-01-13T04:55:09.887Z,676.63
2023-01-13T04:56:09.876Z,676.63
2023-01-13T04:57:09.863Z,676.63
2023-01-13T04:58:09.865Z,676.64
2023-01-13T04:59:09.859Z,676.63
2023-01-13T05:00:09.842Z,676.63
2023-01-13T05:01:10.012Z,676.64
2023-01-13T05:02:09.983Z,676.64
2023-01-13T05:03:09.830Z,676.64
2023-01-13T05:04:09.806Z,676.62
2023-01-13T05:05:09.855Z,676.63
2023-01-13T05:06:09.830Z,676.63
2023-01-13T05:07:09.785Z,676.63
2023-01-13T05:08:10.318Z,676.63
2023-01-13T05:09:09.788Z,676.63
2023-01-13T05:10:09.781Z,676.63
2023-01-13T05:11:09.703Z,676.64
2023-01-13T05:12:09.710Z,676.64
2023-01-13T05:13:09.701Z,676.62
2023-01-13T05:14:09.813Z,676.64
2023-01-13T05:15:09.692Z,676.62
2023-01-13T05:16:11.345Z,676.62
2023-01-13T05:17:09.645Z,676.62
2023-01-13T05:18:09.643Z,676.63
2023-01-13T05:19:09.619Z,676.63
2023-01-13T05:20:09.651Z,676.64
2023-01-13T05:21:09.609Z,676.62
2023-01-13T05:22:09.594Z,676.63
2023-01-13T05:23:09.576Z,676.63
2023-01-13T05:24:09.581Z,676.63
2023-01-13T05:25:09.573Z,676.63
2023-01-13T05:26:09.551Z,676.63
2023-01-13T05:27:09.536Z,676.64
2023-01-13T05:28:09.545Z,676.63
2023-01-13T05:29:09.517Z,676.62
2023-01-13T05:30:09.520Z,676.64
2023-01-13T05:31:09.646Z,676.62
2023-01-13T05:32:09.505Z,676.63
2023-01-13T05:33:09.477Z,676.63
2023-01-13T05:34:09.462Z,676.64
2023-01-13T05:35:09.444Z,676.63
2023-01-13T05:36:09.440Z,676.63
2023-01-13T05:37:09.461Z,676.62
2023-01-13T05:38:09.436Z,676.63
2023-01-13T05:39:09.389Z,676.62
2023-01-13T05:40:09.411Z,676.63
2023-01-13T05:41:09.402Z,676.63
2023-01-13T05:42:09.367Z,676.62
2023-01-13T05:43:09.364Z,676.63
2023-01-13T05:44:09.348Z,676.63
2023-01-13T05:45:09.351Z,676.63
2023-01-13T05:46:09.448Z,676.63
2023-01-13T05:47:09.313Z,676.62
2023-01-13T05:48:09.309Z,676.62
2023-01-13T05:49:09.290Z,676.63
2023-01-13T05:50:09.306Z,676.62
2023-01-13T05:51:09.271Z,676.61
2023-01-13T05:52:09.263Z,676.62
2023-01-13T05:53:09.238Z,676.62
2023-01-13T05:54:09.245Z,676.62
2023-01-13T05:55:09.242Z,676.62
2023-01-13T05:56:09.229Z,676.62
2023-01-13T05:57:09.303Z,676.60
2023-01-13T05:58:09.212Z,676.63
2023-01-13T05:59:09.207Z,676.63
2023-01-13T06:00:09.167Z,676.63
2023-01-13T06:01:14.619Z,676.63
2023-01-13T06:02:09.156Z,676.62
2023-01-13T06:03:09.215Z,676.62
2023-01-13T06:04:09.190Z,676.61
2023-01-13T06:05:09.155Z,676.62
2023-01-13T06:06:09.304Z,676.62
2023-01-13T06:07:09.106Z,676.63
2023-01-13T06:08:09.094Z,676.63
2023-01-13T06:09:09.092Z,676.63
2023-01-13T06:10:09.067Z,676.63
2023-01-13T06:11:09.060Z,676.63
2023-01-13T06:12:09.039Z,676.62
2023-01-13T06:13:09.038Z,676.62
2023-01-13T06:14:09.011Z,676.63
2023-01-13T06:15:09.028Z,676.63
2023-01-13T06:16:09.062Z,676.63
2023-01-13T06:17:08.999Z,676.63
2023-01-13T06:18:08.970Z,676.63
2023-01-13T06:19:08.989Z,676.62
2023-01-13T06:20:08.960Z,676.63
2023-01-13T06:21:08.944Z,676.63
2023-01-13T06:22:08.941Z,676.62
2023-01-13T06:23:08.922Z,676.63
2023-01-13T06:24:08.899Z,676.63
2023-01-13T06:25:08.899Z,676.63
2023-01-13T06:26:08.882Z,676.63
2023-01-13T06:27:08.915Z,676.62
2023-01-13T06:28:08.860Z,676.62
2023-01-13T06:29:08.858Z,676.61
2023-01-13T06:30:08.835Z,676.62
2023-01-13T06:31:08.919Z,676.62
2023-01-13T06:32:08.806Z,676.63
2023-01-13T06:33:08.879Z,676.63
2023-01-13T06:34:08.795Z,676.63
2023-01-13T06:35:08.783Z,676.63
2023-01-13T06:36:08.772Z,676.63
2023-01-13T06:37:08.773Z,676.63
2023-01-13T06:38:08.771Z,676.64
2023-01-13T06:39:08.743Z,676.62
2023-01-13T06:40:08.722Z,676.64
2023-01-13T06:41:08.722Z,676.63
2023-01-13T06:42:08.696Z,676.63
2023-01-13T06:43:08.717Z,676.63
2023-01-13T06:44:08.697Z,676.62
2023-01-13T06:45:08.709Z,676.63
2023-01-13T06:46:08.652Z,676.62
2023-01-13T06:47:08.652Z,676.63
2023-01-13T06:48:08.632Z,676.62
2023-01-13T06:49:08.640Z,676.64
2023-01-13T06:50:08.614Z,676.63
2023-01-13T06:51:08.643Z,676.62
2023-01-13T06:52:08.582Z,676.63
2023-01-13T06:53:08.613Z,676.63
2023-01-13T06:54:08.572Z,676.63
2023-01-13T06:55:08.564Z,676.62
2023-01-13T06:56:08.551Z,676.64
2023-01-13T06:57:08.644Z,676.63
2023-01-13T06:58:08.527Z,676.64
2023-01-13T06:59:08.539Z,676.63
2023-01-13T07:00:08.494Z,676.62
2023-01-13T07:01:08.841Z,676.63
2023-01-13T07:02:08.599Z,676.63
2023-01-13T07:03:08.472Z,676.62
2023-01-13T07:04:08.471Z,676.62
2023-01-13T07:05:08.449Z,676.63
2023-01-13T07:06:08.451Z,676.63
2023-01-13T07:07:08.464Z,676.62
2023-01-13T07:08:08.405Z,676.62
2023-01-13T07:09:08.411Z,676.61
2023-01-13T07:10:08.402Z,676.63
2023-01-13T07:11:08.397Z,676.62
2023-01-13T07:12:08.359Z,676.59
2023-01-13T07:13:08.405Z,676.62
2023-01-13T07:14:08.354Z,676.63
2023-01-13T07:15:08.352Z,676.62
2023-01-13T07:16:08.413Z,676.62
2023-01-13T07:17:08.327Z,676.60
2023-01-13T07:18:08.298Z,676.62
2023-01-13T07:19:08.308Z,676.61
2023-01-13T07:20:08.283Z,676.61
2023-01-13T07:21:08.282Z,676.63
2023-01-13T07:22:08.251Z,676.62
2023-01-13T07:23:08.255Z,676.60
2023-01-13T07:24:08.325Z,676.62
2023-01-13T07:25:08.233Z,676.60
2023-01-13T07:26:08.270Z,676.62
2023-01-13T07:27:08.199Z,676.59
2023-01-13T07:28:08.185Z,676.61
2023-01-13T07:29:08.193Z,676.60
2023-01-13T07:30:08.175Z,676.63
2023-01-13T07:31:08.153Z,676.63
2023-01-13T07:32:08.149Z,676.61
2023-01-13T07:33:08.161Z,676.60
2023-01-13T07:34:08.150Z,676.60
2023-01-13T07:35:08.108Z,676.63
2023-01-13T07:36:08.101Z,676.61
2023-01-13T07:37:08.106Z,676.62
2023-01-13T07:38:08.076Z,676.61
2023-01-13T07:39:08.074Z,676.60
2023-01-13T07:40:08.077Z,676.60
2023-01-13T07:41:08.049Z,676.60
2023-01-13T07:42:08.033Z,676.58
2023-01-13T07:43:08.041Z,676.62
2023-01-13T07:44:08.001Z,676.60
2023-01-13T07:45:08.025Z,676.60
2023-01-13T07:46:07.986Z,676.60
2023-01-13T07:47:07.994Z,676.60
2023-01-13T07:48:07.963Z,676.60
2023-01-13T07:49:07.960Z,676.60
2023-01-13T07:50:07.963Z,676.60
2023-01-13T07:51:07.941Z,676.61
2023-01-13T07:52:07.928Z,676.60
2023-01-13T07:53:07.925Z,676.61
2023-01-13T07:54:07.925Z,676.60
2023-01-13T07:55:07.890Z,676.60
2023-01-13T07:56:07.891Z,676.60
2023-01-13T07:57:07.877Z,676.59
2023-01-13T07:58:07.884Z,676.61
2023-01-13T07:59:07.907Z,676.60
2023-01-13T08:00:07.866Z,676.60
2023-01-13T08:01:07.936Z,676.60
2023-01-13T08:02:08.013Z,676.60
2023-01-13T08:03:07.864Z,676.60
2023-01-13T08:04:07.792Z,676.61
2023-01-13T08:05:07.788Z,676.60
2023-01-13T08:06:07.808Z,676.61
2023-01-13T08:07:07.764Z,676.59
2023-01-13T08:08:07.758Z,676.60
2023-01-13T08:09:07.724Z,676.59
2023-01-13T08:10:07.738Z,676.60
2023-01-13T08:11:07.708Z,676.59
2023-01-13T08:12:07.757Z,676.59
2023-01-13T08:13:07.692Z,676.59
2023-01-13T08:14:07.684Z,676.60
2023-01-13T08:15:07.656Z,676.59
2023-01-13T08:16:07.672Z,676.60
2023-01-13T08:17:07.663Z,676.59
2023-01-13T08:18:07.638Z,676.59
2023-01-13T08:19:07.624Z,676.59
2023-01-13T08:20:07.624Z,676.58
2023-01-13T08:21:07.603Z,676.60
2023-01-13T08:22:07.671Z,676.60
2023-01-13T08:23:07.752Z,676.59
2023-01-13T08:24:07.579Z,676.59
2023-01-13T08:25:07.557Z,676.60
2023-01-13T08:26:07.543Z,676.60
2023-01-13T08:27:07.550Z,676.59
2023-01-13T08:28:07.534Z,676.60
2023-01-13T08:29:07.512Z,676.60
2023-01-13T08:30:07.524Z,676.60
2023-01-13T08:31:07.617Z,676.59
2023-01-13T08:32:07.497Z,676.59
2023-01-13T08:33:07.476Z,676.59
2023-01-13T08:34:07.494Z,676.59
2023-01-13T08:35:07.445Z,676.59
2023-01-13T08:36:07.446Z,676.60
2023-01-13T08:37:07.442Z,676.60
2023-01-13T08:38:07.414Z,676.60
2023-01-13T08:39:07.396Z,676.58
2023-01-13T08:40:07.397Z,676.59
2023-01-13T08:41:07.378Z,676.60
2023-01-13T08:42:07.388Z,676.59
2023-01-13T08:43:07.366Z,676.60
2023-01-13T08:44:07.366Z,676.58
2023-01-13T08:45:07.325Z,676.59
2023-01-13T08:46:07.369Z,676.59
2023-01-13T08:47:07.304Z,676.60
2023-01-13T08:48:07.533Z,676.60
2023-01-13T08:49:07.293Z,676.60
2023-01-13T08:50:07.292Z,676.60
2023-01-13T08:51:07.266Z,676.60
2023-01-13T08:52:07.281Z,676.58
2023-01-13T08:53:07.249Z,676.60
2023-01-13T08:54:07.255Z,676.60
2023-01-13T08:55:07.215Z,676.59
2023-01-13T08:56:07.310Z,676.59
2023-01-13T08:57:07.262Z,676.60
2023-01-13T08:58:15.273Z,676.61
2023-01-13T08:59:08.211Z,676.58
2023-01-13T09:00:07.193Z,676.60
2023-01-13T09:01:07.342Z,676.59
2023-01-13T09:02:07.411Z,676.59
2023-01-13T09:03:07.127Z,676.61
2023-01-13T09:04:07.192Z,676.59
2023-01-13T09:05:07.126Z,676.59
2023-01-13T09:06:07.145Z,676.59
2023-01-13T09:07:07.093Z,676.59
2023-01-13T09:08:07.124Z,676.59
2023-01-13T09:09:07.068Z,676.60
2023-01-13T09:10:07.069Z,676.59
2023-01-13T09:11:07.031Z,676.60
2023-01-13T09:12:07.092Z,676.59
2023-01-13T09:13:07.074Z,676.59
2023-01-13T09:14:07.047Z,676.58
2023-01-13T09:15:06.991Z,676.60
2023-01-13T09:16:07.001Z,676.59
2023-01-13T09:17:06.971Z,676.60
2023-01-13T09:18:06.999Z,676.60
2023-01-13T09:19:06.975Z,676.59
2023-01-13T09:20:06.955Z,676.59
2023-01-13T09:21:06.953Z,676.59
2023-01-13T09:22:06.940Z,676.59
2023-01-13T09:23:09.842Z,676.59
2023-01-13T09:24:06.937Z,676.59
2023-01-13T09:25:06.897Z,676.60
2023-01-13T09:26:07.378Z,676.58
2023-01-13T09:27:06.867Z,676.59
2023-01-13T09:28:06.865Z,676.60
2023-01-13T09:29:06.860Z,676.59
2023-01-13T09:30:06.838Z,676.60
2023-01-13T09:31:06.849Z,676.59
2023-01-13T09:32:06.819Z,676.60
2023-01-13T09:33:06.797Z,676.59
2023-01-13T09:34:06.815Z,676.59
2023-01-13T09:35:06.808Z,676.59
2023-01-13T09:36:06.771Z,676.58
2023-01-13T09:37:06.772Z,676.58
2023-01-13T09:38:06.756Z,676.59
2023-01-13T09:39:06.735Z,676.59
2023-01-13T09:40:06.743Z,676.59
2023-01-13T09:41:06.719Z,676.59
2023-01-13T09:42:06.707Z,676.60
2023-01-13T09:43:06.686Z,676.59
2023-01-13T09:44:06.670Z,676.60
2023-01-13T09:45:06.682Z,676.59
2023-01-13T09:46:06.731Z,676.59
2023-01-13T09:47:06.643Z,676.57
2023-01-13T09:48:06.630Z,676.58
2023-01-13T09:49:06.626Z,676.58
2023-01-13T09:50:13.328Z,676.58
2023-01-13T09:51:06.649Z,676.58
2023-01-13T09:52:06.584Z,676.59
2023-01-13T09:53:06.585Z,676.58
2023-01-13T09:54:06.559Z,676.58
2023-01-13T09:55:06.569Z,676.59
2023-01-13T09:56:06.538Z,676.59
2023-01-13T09:57:06.552Z,676.58
2023-01-13T09:58:08.652Z,676.58
2023-01-13T09:59:06.519Z,676.59
2023-01-13T10:00:06.510Z,676.58
2023-01-13T10:01:06.500Z,676.59
2023-01-13T10:02:06.480Z,676.59
2023-01-13T10:03:06.526Z,676.59
2023-01-13T10:04:08.411Z,676.58
2023-01-13T10:05:06.751Z,676.58
2023-01-13T10:06:06.446Z,676.59
2023-01-13T10:07:06.419Z,676.59
2023-01-13T10:08:06.420Z,676.59
2023-01-13T10:09:06.400Z,676.59
2023-01-13T10:10:09.132Z,676.59
2023-01-13T10:11:06.394Z,676.59
2023-01-13T10:12:06.396Z,676.61
2023-01-13T10:13:06.367Z,676.58
2023-01-13T10:14:06.347Z,676.59
2023-01-13T10:15:06.339Z,676.59
2023-01-13T10:16:06.427Z,676.59
2023-01-13T10:17:06.318Z,676.59
2023-01-13T10:18:06.291Z,676.59
2023-01-13T10:19:06.296Z,676.60
2023-01-13T10:20:06.304Z,676.59
2023-01-13T10:21:06.270Z,676.59
2023-01-13T10:22:08.516Z,676.60
2023-01-13T10:23:06.287Z,676.59
2023-01-13T10:24:06.229Z,676.59
2023-01-13T10:25:06.231Z,676.60
2023-01-13T10:26:06.282Z,676.58
2023-01-13T10:27:06.229Z,676.59
2023-01-13T10:28:06.219Z,676.59
2023-01-13T10:29:06.192Z,676.59
2023-01-13T10:30:06.148Z,676.59
2023-01-13T10:31:06.166Z,676.58
2023-01-13T10:32:06.169Z,676.58
2023-01-13T10:33:06.147Z,676.58
2023-01-13T10:34:06.126Z,676.58
2023-01-13T10:35:06.119Z,676.58
2023-01-13T10:36:06.096Z,676.58
2023-01-13T10:37:06.127Z,676.59
2023-01-13T10:38:06.167Z,676.59
2023-01-13T10:39:06.047Z,676.58
2023-01-13T10:40:06.064Z,676.58
2023-01-13T10:41:06.058Z,676.59
2023-01-13T10:42:06.071Z,676.59
2023-01-13T10:43:06.033Z,676.59
2023-01-13T10:44:08.562Z,676.59
2023-01-13T10:45:06.001Z,676.58
2023-01-13T10:46:06.137Z,676.58
2023-01-13T10:47:05.972Z,676.59
2023-01-13T10:48:06.030Z,676.58
2023-01-13T10:49:05.958Z,676.58
2023-01-13T10:50:06.765Z,676.59
2023-01-13T10:51:05.936Z,676.59
2023-01-13T10:52:05.985Z,676.58
2023-01-13T10:53:05.892Z,676.58
2023-01-13T10:54:05.901Z,676.58
2023-01-13T10:55:05.894Z,676.59
2023-01-13T10:56:05.885Z,676.58
2023-01-13T10:57:05.870Z,676.59
2023-01-13T10:58:05.879Z,676.58
2023-01-13T10:59:05.842Z,676.59
2023-01-13T11:00:05.839Z,676.58
2023-01-13T11:01:05.853Z,676.59
2023-01-13T11:02:23.832Z,676.58
2023-01-13T11:03:06.800Z,676.59
2023-01-13T11:04:05.792Z,676.58
2023-01-13T11:05:05.798Z,676.59
2023-01-13T11:06:05.766Z,676.59
2023-01-13T11:07:05.889Z,676.58
2023-01-13T11:08:05.829Z,676.60
2023-01-13T11:09:05.723Z,676.58
2023-01-13T11:10:05.722Z,676.59
2023-01-13T11:11:05.700Z,676.58
2023-01-13T11:12:05.701Z,676.59
2023-01-13T11:13:05.688Z,676.58
2023-01-13T11:14:08.422Z,676.58
2023-01-13T11:15:05.759Z,676.58
2023-01-13T11:16:05.715Z,676.59
2023-01-13T11:17:05.637Z,676.59
2023-01-13T11:18:05.637Z,676.58
2023-01-13T11:19:05.620Z,676.59
2023-01-13T11:20:05.632Z,676.57
2023-01-13T11:21:05.628Z,676.59
2023-01-13T11:22:05.602Z,676.59
2023-01-13T11:23:05.562Z,676.58
2023-01-13T11:24:05.575Z,676.58
2023-01-13T11:25:05.541Z,676.58
2023-01-13T11:26:05.574Z,676.58
2023-01-13T11:27:05.541Z,676.59
2023-01-13T11:28:05.524Z,676.58
2023-01-13T11:29:05.505Z,676.59
2023-01-13T11:30:05.515Z,676.59
2023-01-13T11:31:05.547Z,676.58
2023-01-13T11:32:05.491Z,676.59
2023-01-13T11:33:05.463Z,676.58
2023-01-13T11:34:05.453Z,676.57
2023-01-13T11:35:05.443Z,676.59
2023-01-13T11:36:05.442Z,676.58
2023-01-13T11:37:05.680Z,676.59
2023-01-13T11:38:05.405Z,676.58
2023-01-13T11:39:05.401Z,676.59
2023-01-13T11:40:05.396Z,676.59
2023-01-13T11:41:05.393Z,676.58
2023-01-13T11:42:05.382Z,676.57
2023-01-13T11:43:05.342Z,676.57
2023-01-13T11:44:05.353Z,676.58
2023-01-13T11:45:05.338Z,676.59
2023-01-13T11:46:05.471Z,676.59
2023-01-13T11:47:05.444Z,676.59
2023-01-13T11:48:05.297Z,676.59
2023-01-13T11:49:05.299Z,676.58
2023-01-13T11:50:05.274Z,676.59
2023-01-13T11:51:05.272Z,676.58
2023-01-13T11:52:05.359Z,676.58
2023-01-13T11:53:05.262Z,676.58
2023-01-13T11:54:05.241Z,676.59
2023-01-13T11:55:05.451Z,676.58
2023-01-13T11:56:05.242Z,676.59
2023-01-13T11:57:05.200Z,676.58
2023-01-13T11:58:05.202Z,676.59
2023-01-13T11:59:05.223Z,676.58
2023-01-13T12:00:05.173Z,676.58
2023-01-13T12:01:05.221Z,676.59
2023-01-13T12:02:05.196Z,676.59
2023-01-13T12:03:05.152Z,676.59
2023-01-13T12:04:05.116Z,676.58
2023-01-13T12:05:05.111Z,676.58
2023-01-13T12:06:05.100Z,676.58
2023-01-13T12:07:05.101Z,676.59
2023-01-13T12:08:05.071Z,676.57
2023-01-13T12:09:05.073Z,676.58
2023-01-13T12:10:05.271Z,676.59
2023-01-13T12:11:05.044Z,676.59
2023-01-13T12:12:05.055Z,676.58
2023-01-13T12:13:05.021Z,676.58
2023-01-13T12:14:05.017Z,676.58
2023-01-13T12:15:05.004Z,676.57
2023-01-13T12:16:05.063Z,676.59
2023-01-13T12:17:04.961Z,676.59
2023-01-13T12:18:04.981Z,676.59
2023-01-13T12:19:04.960Z,676.58
2023-01-13T12:20:04.946Z,676.59
2023-01-13T12:21:04.934Z,676.59
2023-01-13T12:22:04.922Z,676.60
2023-01-13T12:23:04.918Z,676.58
2023-01-13T12:24:04.893Z,676.59
2023-01-13T12:25:04.879Z,676.59
2023-01-13T12:26:04.875Z,676.58
2023-01-13T12:27:04.865Z,676.58
2023-01-13T12:28:04.849Z,676.59